createdAt,value
2022-10-02T00:02:25.210Z,39.32
2022-10-02T00:07:32.457Z,39.34
2022-10-02T00:12:39.621Z,39.49
2022-10-02T00:17:46.809Z,39.39
2022-10-02T00:22:54.053Z,39.50
2022-10-02T00:28:01.254Z,39.37
2022-10-02T00:33:08.423Z,39.03
2022-10-02T00:38:15.649Z,39.37
2022-10-02T00:43:22.837Z,39.31
2022-10-02T00:48:30.010Z,39.39
2022-10-02T00:53:37.287Z,39.34
2022-10-02T00:58:44.462Z,39.33
2022-10-02T01:03:51.655Z,39.29
2022-10-02T01:08:58.913Z,39.53
2022-10-02T01:14:06.067Z,39.50
2022-10-02T01:19:13.265Z,39.48
2022-10-02T01:24:20.493Z,39.48
2022-10-02T01:29:27.692Z,39.71
2022-10-02T01:34:34.902Z,39.70
2022-10-02T01:39:42.209Z,39.59
2022-10-02T01:44:49.347Z,39.75
2022-10-02T01:49:56.596Z,39.91
2022-10-02T01:55:03.843Z,39.87
2022-10-02T02:00:11.015Z,39.99
2022-10-02T02:05:18.303Z,40.29
2022-10-02T02:10:25.536Z,40.19
2022-10-02T02:15:32.758Z,40.04
2022-10-02T02:20:39.932Z,40.15
2022-10-02T02:25:47.186Z,40.72
2022-10-02T02:30:54.347Z,40.61
2022-10-02T02:36:01.530Z,40.66
2022-10-02T02:41:08.783Z,40.84
2022-10-02T02:46:16.020Z,40.97
2022-10-02T02:51:23.211Z,40.56
2022-10-02T02:56:30.492Z,40.61
2022-10-02T03:01:37.672Z,40.36
2022-10-02T03:06:44.893Z,40.53
2022-10-02T03:11:52.129Z,40.44
2022-10-02T03:16:59.280Z,40.47
2022-10-02T03:22:06.666Z,40.51
2022-10-02T03:27:14.022Z,40.56
2022-10-02T03:32:21.298Z,40.64
2022-10-02T03:37:28.529Z,40.59
2022-10-02T03:42:35.766Z,40.72
2022-10-02T03:47:42.879Z,41.77
2022-10-02T03:52:50.092Z,41.03
2022-10-02T03:57:57.366Z,40.58
2022-10-02T04:03:04.561Z,40.71
2022-10-02T04:08:11.775Z,40.99
2022-10-02T04:13:18.984Z,41.11
2022-10-02T04:18:26.255Z,40.84
2022-10-02T04:23:33.469Z,41.06
2022-10-02T04:28:40.694Z,41.10
2022-10-02T04:33:47.869Z,41.13
2022-10-02T04:38:55.083Z,41.11
2022-10-02T04:44:02.266Z,41.25
2022-10-02T04:49:09.491Z,43.09
2022-10-02T04:54:16.684Z,41.58
2022-10-02T04:59:24.029Z,41.64
2022-10-02T05:04:31.257Z,41.04
2022-10-02T05:09:38.499Z,41.21
2022-10-02T05:14:45.737Z,41.24
2022-10-02T05:19:52.913Z,41.51
2022-10-02T05:25:00.132Z,41.27
2022-10-02T05:30:07.351Z,41.27
2022-10-02T05:35:14.544Z,41.22
2022-10-02T05:40:21.713Z,42.00
2022-10-02T05:45:28.977Z,41.74
2022-10-02T05:50:36.180Z,41.50
2022-10-02T05:55:43.392Z,41.31
2022-10-02T06:00:50.761Z,41.10
2022-10-02T06:05:57.778Z,41.20
2022-10-02T06:11:04.984Z,41.10
2022-10-02T06:16:12.343Z,40.91
2022-10-02T06:21:19.536Z,40.99
2022-10-02T06:26:26.732Z,40.82
2022-10-02T06:31:34.117Z,40.91
2022-10-02T06:36:41.302Z,41.10
2022-10-02T06:41:48.531Z,40.95
2022-10-02T06:46:55.778Z,42.21
2022-10-02T06:52:02.999Z,41.42
2022-10-02T06:57:10.226Z,41.51
2022-10-02T07:02:17.487Z,41.37
2022-10-02T07:07:24.581Z,41.40
2022-10-02T07:12:31.848Z,41.45
2022-10-02T07:17:39.105Z,41.39
2022-10-02T07:22:46.431Z,41.40
2022-10-02T07:27:53.675Z,41.42
2022-10-02T07:33:00.925Z,41.34
2022-10-02T07:38:08.101Z,41.38
2022-10-02T07:43:15.796Z,41.30
2022-10-02T07:48:23.117Z,41.20
2022-10-02T07:53:30.310Z,41.19
2022-10-02T07:58:37.549Z,41.29
2022-10-02T08:03:44.841Z,41.42
2022-10-02T08:08:52.033Z,41.38
2022-10-02T08:13:59.206Z,41.35
2022-10-02T08:19:06.443Z,41.35
2022-10-02T08:24:13.616Z,41.25
2022-10-02T08:29:20.841Z,41.38
2022-10-02T08:34:28.052Z,41.15
2022-10-02T08:39:35.230Z,41.30
2022-10-02T08:44:42.541Z,41.32
2022-10-02T08:49:49.777Z,41.52
2022-10-02T08:54:57.004Z,41.64
2022-10-02T09:00:04.193Z,41.88
2022-10-02T09:05:11.388Z,41.50
2022-10-02T09:10:18.551Z,41.32
2022-10-02T09:15:25.767Z,41.14
2022-10-02T09:20:33.002Z,41.36
2022-10-02T09:25:40.121Z,42.02
2022-10-02T09:30:47.372Z,42.34
2022-10-02T09:35:54.610Z,42.61
2022-10-02T09:41:01.834Z,42.57
2022-10-02T09:46:09.124Z,42.24
2022-10-02T09:51:16.321Z,41.99
2022-10-02T09:56:23.521Z,41.75
2022-10-02T10:01:30.775Z,41.83
2022-10-02T10:06:38.736Z,41.42
2022-10-02T10:11:45.420Z,41.32
2022-10-02T10:16:52.720Z,41.16
2022-10-02T10:22:00.027Z,41.21
2022-10-02T10:27:08.203Z,41.24
2022-10-02T10:32:14.625Z,41.16
2022-10-02T10:37:21.877Z,41.11
2022-10-02T10:42:29.133Z,41.13
2022-10-02T10:47:36.284Z,41.00
2022-10-02T10:52:43.558Z,40.92
2022-10-02T10:57:50.755Z,40.96
2022-10-02T11:02:58.211Z,40.96
2022-10-02T11:08:05.437Z,41.11
2022-10-02T11:13:12.644Z,40.99
2022-10-02T11:18:19.865Z,41.07
2022-10-02T11:23:27.191Z,40.99
2022-10-02T11:28:34.432Z,41.09
2022-10-02T11:33:42.140Z,41.08
2022-10-02T11:38:49.535Z,41.15
2022-10-02T11:43:56.643Z,41.18
2022-10-02T11:49:03.918Z,41.63
2022-10-02T11:54:11.194Z,41.82
2022-10-02T11:59:18.395Z,42.18
2022-10-02T12:04:25.580Z,43.09
2022-10-02T12:09:32.819Z,41.94
2022-10-02T12:14:40.070Z,41.98
2022-10-02T12:19:47.297Z,41.85
2022-10-02T12:24:55.045Z,41.64
2022-10-02T12:30:01.768Z,41.82
2022-10-02T12:35:09.057Z,41.82
2022-10-02T12:40:16.369Z,41.61
2022-10-02T12:45:23.576Z,41.71
2022-10-02T12:50:31.086Z,41.53
2022-10-02T12:55:38.302Z,41.66
2022-10-02T13:00:45.513Z,41.61
2022-10-02T13:05:52.638Z,41.87
2022-10-02T13:11:00.151Z,41.71
2022-10-02T13:16:07.399Z,41.73
2022-10-02T13:21:14.568Z,41.61
2022-10-02T13:26:21.745Z,41.58
2022-10-02T13:31:29.027Z,41.51
2022-10-02T13:36:36.186Z,43.46
2022-10-02T13:41:43.412Z,43.64
2022-10-02T13:46:50.644Z,44.50
2022-10-02T13:51:57.900Z,44.70
2022-10-02T13:57:05.122Z,44.91
2022-10-02T14:02:13.754Z,45.55
2022-10-02T14:07:20.976Z,44.89
2022-10-02T14:12:28.798Z,44.92
2022-10-02T14:17:36.057Z,44.85
2022-10-02T14:22:43.348Z,44.89
2022-10-02T14:27:50.688Z,44.95
2022-10-02T14:32:57.872Z,44.70
2022-10-02T14:38:05.148Z,44.63
2022-10-02T14:43:12.389Z,44.93
2022-10-02T14:48:19.663Z,44.98
2022-10-02T14:53:26.890Z,44.57
2022-10-02T14:58:34.163Z,44.87
2022-10-02T15:03:41.337Z,44.82
2022-10-02T15:08:48.518Z,44.88
2022-10-02T15:13:55.746Z,45.07
2022-10-02T15:19:02.956Z,45.73
2022-10-02T15:24:10.165Z,46.06
2022-10-02T15:29:17.439Z,46.11
2022-10-02T15:34:24.680Z,45.88
2022-10-02T15:39:31.887Z,46.01
2022-10-02T15:44:39.084Z,46.20
2022-10-02T15:49:46.263Z,45.94
2022-10-02T15:54:53.488Z,46.02
2022-10-02T16:00:00.806Z,45.74
2022-10-02T16:05:07.899Z,45.70
2022-10-02T16:10:15.107Z,45.87
2022-10-02T16:15:22.454Z,45.78
2022-10-02T16:20:29.625Z,45.80
2022-10-02T16:25:36.892Z,45.95
2022-10-02T16:30:44.132Z,45.81
2022-10-02T16:35:51.322Z,45.76
2022-10-02T16:40:58.506Z,45.82
2022-10-02T16:46:05.807Z,45.97
2022-10-02T16:51:13.043Z,46.35
2022-10-02T16:56:20.290Z,45.78
2022-10-02T17:01:27.639Z,45.55
2022-10-02T17:06:35.581Z,46.56
2022-10-02T17:11:42.547Z,48.70
2022-10-02T17:16:49.983Z,46.32
2022-10-02T17:21:57.086Z,46.17
2022-10-02T17:27:04.298Z,45.84
2022-10-02T17:32:11.535Z,45.63
2022-10-02T17:37:19.711Z,45.54
2022-10-02T17:42:27.011Z,44.92
2022-10-02T17:47:34.249Z,45.02
2022-10-02T17:52:41.488Z,44.52
2022-10-02T17:57:48.665Z,44.41
2022-10-02T18:02:55.904Z,44.54
2022-10-02T18:08:03.092Z,44.73
2022-10-02T18:13:10.293Z,44.59
2022-10-02T18:18:17.474Z,44.55
2022-10-02T18:23:24.638Z,44.52
2022-10-02T18:28:31.958Z,44.51
2022-10-02T18:33:39.411Z,44.21
2022-10-02T18:38:46.727Z,44.41
2022-10-02T18:43:53.996Z,44.06
2022-10-02T18:49:01.742Z,43.36
2022-10-02T18:54:09.032Z,42.47
2022-10-02T18:59:16.248Z,44.47
2022-10-02T19:04:23.772Z,43.59
2022-10-02T19:09:31.045Z,43.39
2022-10-02T19:14:38.343Z,43.79
2022-10-02T19:19:45.633Z,43.09
2022-10-02T19:24:52.925Z,42.79
2022-10-02T19:30:00.183Z,42.23
2022-10-02T19:35:10.907Z,42.19
2022-10-02T19:40:18.203Z,41.74
2022-10-02T19:45:25.688Z,41.13
2022-10-02T19:50:32.705Z,41.68
2022-10-02T19:55:39.851Z,41.82
2022-10-02T20:00:47.251Z,41.50
2022-10-02T20:05:54.623Z,41.14
2022-10-02T20:11:01.872Z,40.74
2022-10-02T20:16:09.456Z,41.05
2022-10-02T20:21:16.637Z,41.24
2022-10-02T20:26:23.746Z,40.85
2022-10-02T20:31:31.020Z,41.20
2022-10-02T20:36:38.143Z,40.64
2022-10-02T20:41:45.329Z,40.71
2022-10-02T20:46:52.619Z,41.18
2022-10-02T20:51:59.819Z,41.20
2022-10-02T20:57:10.301Z,41.27
2022-10-02T21:02:14.314Z,41.43
2022-10-02T21:07:21.583Z,41.43
2022-10-02T21:12:28.790Z,41.52
2022-10-02T21:17:35.959Z,41.59
2022-10-02T21:22:43.246Z,41.81
2022-10-02T21:27:50.696Z,41.90
2022-10-02T21:32:57.972Z,42.03
2022-10-02T21:38:05.144Z,42.06
2022-10-02T21:43:12.360Z,42.28
2022-10-02T21:48:19.714Z,42.28
2022-10-02T21:53:26.980Z,42.30
2022-10-02T21:58:37.309Z,42.35
2022-10-02T22:03:44.714Z,42.21
2022-10-02T22:08:52.308Z,42.21
2022-10-02T22:13:59.558Z,42.22
2022-10-02T22:19:06.746Z,42.11
2022-10-02T22:24:13.941Z,41.86
2022-10-02T22:29:21.125Z,42.62
2022-10-02T22:34:28.357Z,43.61
2022-10-02T22:39:35.668Z,43.24
2022-10-02T22:44:42.801Z,42.67
2022-10-02T22:49:50.034Z,42.36
2022-10-02T22:54:57.327Z,42.20
2022-10-02T23:00:04.459Z,42.02
2022-10-02T23:05:11.665Z,42.02
2022-10-02T23:10:18.891Z,41.91
2022-10-02T23:15:26.052Z,41.70
2022-10-02T23:20:33.290Z,41.65
2022-10-02T23:25:40.515Z,41.44
2022-10-02T23:30:47.741Z,41.64
2022-10-02T23:35:54.910Z,41.36
2022-10-02T23:41:02.247Z,41.47
2022-10-02T23:46:09.510Z,41.45
2022-10-02T23:51:16.673Z,41.72
2022-10-02T23:56:23.911Z,42.04
